Time;durP1;ratioP1;P1;durP2;ratioP2;P2;SDS_P1;SDS_P2;PMS_P1;PMS_P2;Temp;Humidity;BMP_temperature;BMP_pressure;BME280_temperature;BME280_humidity;BME280_pressure;Samples;Min_cycle;Max_cycle;Signal;HPM_P1;HPM_P2
2021/01/31 00:00:50;;;;;;;22.13;7.18;;;;;;;;;;5034664;28;20049;-83
2021/01/31 00:03:20;;;;;;;23.15;6.63;;;;;;;;;;5052281;28;20497;-83
2021/01/31 00:05:49;;;;;;;19.58;6.40;;;;;;;;;;5033907;28;20445;-83
2021/01/31 00:08:17;;;;;;;17.38;6.47;;;;;;;;;;5052434;28;20533;-83
2021/01/31 00:10:45;;;;;;;19.45;7.38;;;;;;;;;;5033807;28;20127;-83
2021/01/31 00:13:12;;;;;;;19.90;7.57;;;;;;;;;;5050933;28;20478;-83
2021/01/31 00:15:40;;;;;;;22.38;7.22;;;;;;;;;;5039712;28;20458;-83
2021/01/31 00:18:07;;;;;;;19.35;7.03;;;;;;;;;;5042778;28;20072;-83
2021/01/31 00:20:35;;;;;;;17.35;6.85;;;;;;;;;;5052289;28;20049;-83
2021/01/31 00:23:02;;;;;;;19.10;6.55;;;;;;;;;;5045744;28;20398;-83
2021/01/31 00:25:35;;;;;;;22.85;7.90;;;;;;;;;;5052385;28;20094;-82
2021/01/31 00:28:02;;;;;;;20.48;6.10;;;;;;;;;;5044708;28;20100;-83
2021/01/31 00:30:30;;;;;;;21.98;7.00;;;;;;;;;;5052726;28;20108;-79
2021/01/31 00:33:04;;;;;;;19.95;7.20;;;;;;;;;;5046478;28;20048;-80
2021/01/31 00:35:33;;;;;;;22.20;7.68;;;;;;;;;;5051325;28;20088;-80
2021/01/31 00:38:00;;;;;;;23.20;8.25;;;;;;;;;;5033930;28;20048;-79
2021/01/31 00:40:27;;;;;;;21.73;6.97;;;;;;;;;;5034076;28;20466;-79
2021/01/31 00:43:08;;;;;;;24.90;8.55;;;;;;;;;;5034068;28;20055;-79
2021/01/31 00:45:35;;;;;;;19.10;7.40;;;;;;;;;;5052562;28;20045;-79
2021/01/31 00:48:06;;;;;;;23.67;7.60;;;;;;;;;;5034633;28;20127;-79
2021/01/31 00:50:34;;;;;;;19.73;7.63;;;;;;;;;;5052457;28;20107;-80
2021/01/31 00:53:05;;;;;;;24.50;7.15;;;;;;;;;;5051105;28;20072;-79
2021/01/31 00:55:32;;;;;;;17.50;5.95;;;;;;;;;;5034827;28;20083;-79
2021/01/31 00:57:59;;;;;;;24.42;8.45;;;;;;;;;;5043823;28;20041;-80
2021/01/31 01:00:30;;;;;;;21.13;7.22;;;;;;;;;;5052049;28;20047;-79
2021/01/31 01:02:58;;;;;;;21.52;7.57;;;;;;;;;;5047904;28;20124;-79
2021/01/31 01:05:26;;;;;;;19.90;8.80;;;;;;;;;;5051665;28;20069;-79
2021/01/31 01:07:53;;;;;;;24.58;7.65;;;;;;;;;;5050425;28;20049;-79
2021/01/31 01:10:23;;;;;;;20.55;7.72;;;;;;;;;;5049178;28;20648;-80
2021/01/31 01:12:49;;;;;;;22.58;8.93;;;;;;;;;;5050478;28;20048;-79
2021/01/31 01:15:17;;;;;;;23.48;8.15;;;;;;;;;;5052282;28;20124;-79
2021/01/31 01:17:44;;;;;;;17.15;7.32;;;;;;;;;;5054128;28;20045;-79
2021/01/31 01:20:17;;;;;;;23.15;9.02;;;;;;;;;;5046131;28;20083;-80
2021/01/31 01:22:44;;;;;;;33.63;8.20;;;;;;;;;;5047572;28;20040;-79
2021/01/31 01:25:12;;;;;;;23.20;8.18;;;;;;;;;;5055607;28;20072;-79
2021/01/31 01:27:40;;;;;;;21.17;7.57;;;;;;;;;;5046687;28;20434;-79
2021/01/31 01:30:08;;;;;;;21.95;7.38;;;;;;;;;;5053782;28;20041;-79
2021/01/31 01:32:46;;;;;;;20.58;8.00;;;;;;;;;;5048214;28;20664;-79
2021/01/31 01:35:13;;;;;;;19.50;7.28;;;;;;;;;;5042830;28;20437;-80
2021/01/31 01:37:40;;;;;;;22.25;8.02;;;;;;;;;;5055786;28;20401;-80
2021/01/31 01:40:16;;;;;;;18.40;7.53;;;;;;;;;;5054382;28;20124;-79
2021/01/31 01:42:43;;;;;;;21.15;8.48;;;;;;;;;;5055279;28;20795;-79
2021/01/31 01:45:10;;;;;;;24.63;8.38;;;;;;;;;;5045201;28;20561;-79
2021/01/31 01:47:38;;;;;;;24.58;7.97;;;;;;;;;;5044398;28;20124;-79
2021/01/31 01:50:20;;;;;;;20.20;7.60;;;;;;;;;;5036834;28;20641;-80
2021/01/31 01:52:47;;;;;;;24.10;8.27;;;;;;;;;;5054512;28;20045;-79
2021/01/31 01:55:17;;;;;;;26.83;8.55;;;;;;;;;;5054034;28;20132;-80
2021/01/31 01:57:46;;;;;;;27.10;8.18;;;;;;;;;;5055349;28;20099;-79
2021/01/31 02:00:13;;;;;;;25.10;8.38;;;;;;;;;;5044126;28;20103;-79
2021/01/31 02:03:00;;;;;;;29.60;10.50;;;;;;;;;;5053808;28;20043;-79
2021/01/31 02:05:27;;;;;;;28.40;9.07;;;;;;;;;;5037189;28;20040;-79
2021/01/31 02:07:54;;;;;;;26.65;9.93;;;;;;;;;;5054748;28;20073;-79
2021/01/31 02:10:23;;;;;;;25.60;8.52;;;;;;;;;;5054755;28;20106;-79
2021/01/31 02:12:51;;;;;;;27.27;9.45;;;;;;;;;;5053891;28;20516;-79
2021/01/31 02:15:20;;;;;;;26.23;8.48;;;;;;;;;;5044821;28;20053;-79
2021/01/31 02:17:49;;;;;;;22.33;8.25;;;;;;;;;;5053217;28;20073;-79
2021/01/31 02:20:34;;;;;;;29.10;9.18;;;;;;;;;;5054604;28;20729;-80
2021/01/31 02:23:07;;;;;;;26.05;7.55;;;;;;;;;;5042740;28;20375;-79
2021/01/31 02:25:44;;;;;;;26.75;9.43;;;;;;;;;;5052277;28;20049;-79
2021/01/31 02:28:47;;;;;;;23.20;8.80;;;;;;;;;;5044596;28;20041;-79
2021/01/31 02:31:25;;;;;;;28.23;8.77;;;;;;;;;;5030700;28;20080;-79
2021/01/31 02:33:58;;;;;;;23.20;8.75;;;;;;;;;;5053334;28;20080;-79
2021/01/31 02:36:24;;;;;;;36.17;10.10;;;;;;;;;;5054792;28;20485;-79
2021/01/31 02:38:57;;;;;;;34.45;10.93;;;;;;;;;;5036823;28;20474;-79
2021/01/31 02:41:42;;;;;;;28.77;10.52;;;;;;;;;;5036115;28;20519;-79
2021/01/31 02:44:13;;;;;;;35.22;10.80;;;;;;;;;;5031706;28;20120;-79
2021/01/31 02:46:46;;;;;;;45.72;11.70;;;;;;;;;;5051661;28;20402;-79
2021/01/31 02:49:35;;;;;;;34.28;11.25;;;;;;;;;;5036938;28;20140;-79
2021/01/31 02:52:07;;;;;;;30.88;10.40;;;;;;;;;;5028496;28;20101;-79
2021/01/31 02:54:40;;;;;;;32.60;11.23;;;;;;;;;;5036816;28;20132;-79
2021/01/31 02:57:10;;;;;;;35.97;11.10;;;;;;;;;;5036180;28;20072;-79
2021/01/31 02:59:43;;;;;;;30.58;10.60;;;;;;;;;;5036001;28;20075;-80
2021/01/31 03:02:19;;;;;;;27.88;10.65;;;;;;;;;;5053171;28;20593;-79
2021/01/31 03:05:02;;;;;;;33.83;12.02;;;;;;;;;;5054130;28;20099;-79
2021/01/31 03:07:41;;;;;;;33.20;12.80;;;;;;;;;;5035667;28;20555;-80
2021/01/31 03:10:10;;;;;;;32.38;11.13;;;;;;;;;;5028986;28;20796;-78
2021/01/31 03:12:49;;;;;;;36.03;13.10;;;;;;;;;;5035257;28;20739;-79
2021/01/31 03:15:24;;;;;;;33.80;12.45;;;;;;;;;;5027143;28;20051;-79
2021/01/31 03:17:56;;;;;;;33.03;11.35;;;;;;;;;;5034646;28;20052;-79
2021/01/31 03:20:26;;;;;;;39.08;12.77;;;;;;;;;;5053488;28;20053;-78
2021/01/31 03:22:53;;;;;;;42.97;12.93;;;;;;;;;;5053206;28;20139;-78
2021/01/31 03:25:24;;;;;;;38.78;12.82;;;;;;;;;;5026762;28;20072;-79
2021/01/31 03:27:50;;;;;;;39.28;12.93;;;;;;;;;;5035452;28;20080;-79
2021/01/31 03:30:17;;;;;;;34.55;12.65;;;;;;;;;;5033872;28;20137;-79
2021/01/31 03:32:51;;;;;;;35.30;12.32;;;;;;;;;;5043470;28;20107;-79
2021/01/31 03:35:21;;;;;;;36.40;12.63;;;;;;;;;;5052937;28;20532;-78
2021/01/31 03:37:53;;;;;;;36.00;12.90;;;;;;;;;;5034823;28;20143;-79
2021/01/31 03:40:22;;;;;;;30.52;11.63;;;;;;;;;;5047481;28;20044;-79
2021/01/31 03:42:51;;;;;;;34.70;11.70;;;;;;;;;;5052415;28;20045;-79
2021/01/31 03:45:21;;;;;;;27.23;10.30;;;;;;;;;;5035605;28;20076;-79
2021/01/31 03:48:02;;;;;;;34.78;12.60;;;;;;;;;;5052184;28;20099;-79
2021/01/31 03:50:29;;;;;;;33.85;11.98;;;;;;;;;;5035212;28;20072;-79
2021/01/31 03:52:56;;;;;;;33.05;10.85;;;;;;;;;;5052625;28;20115;-80
2021/01/31 03:55:23;;;;;;;41.45;13.05;;;;;;;;;;5051561;28;20053;-79
2021/01/31 03:57:52;;;;;;;31.85;11.40;;;;;;;;;;5051744;28;20056;-79
2021/01/31 04:00:24;;;;;;;31.65;11.35;;;;;;;;;;5051987;28;20049;-79
2021/01/31 04:02:54;;;;;;;39.85;12.02;;;;;;;;;;5051968;28;20106;-79
2021/01/31 04:05:23;;;;;;;35.72;11.13;;;;;;;;;;5034859;28;20040;-79
2021/01/31 04:07:51;;;;;;;39.00;12.70;;;;;;;;;;5034911;28;20486;-79
2021/01/31 04:10:17;;;;;;;39.28;13.65;;;;;;;;;;5034340;28;20075;-78
2021/01/31 04:12:48;;;;;;;34.80;12.27;;;;;;;;;;5027613;28;20864;-79
2021/01/31 04:15:21;;;;;;;36.75;12.18;;;;;;;;;;5034678;28;20704;-79
2021/01/31 04:17:56;;;;;;;41.50;12.80;;;;;;;;;;5034812;28;20397;-79
2021/01/31 04:20:23;;;;;;;39.92;14.25;;;;;;;;;;5035017;28;20080;-79
2021/01/31 04:22:49;;;;;;;33.10;12.20;;;;;;;;;;5034325;28;20076;-78
2021/01/31 04:25:17;;;;;;;46.13;14.90;;;;;;;;;;5026778;28;20090;-79
2021/01/31 04:27:44;;;;;;;40.50;13.45;;;;;;;;;;5033071;28;20055;-79
2021/01/31 04:30:11;;;;;;;35.88;14.15;;;;;;;;;;5034644;28;20087;-79
2021/01/31 04:32:37;;;;;;;36.83;14.35;;;;;;;;;;5051978;28;20636;-79
2021/01/31 04:35:06;;;;;;;42.25;14.18;;;;;;;;;;5029359;28;20110;-79
2021/01/31 04:37:33;;;;;;;40.67;15.18;;;;;;;;;;5051550;28;20068;-79
2021/01/31 04:39:59;;;;;;;42.20;15.55;;;;;;;;;;5030150;28;20049;-79
2021/01/31 04:42:28;;;;;;;41.25;15.02;;;;;;;;;;5050963;28;20076;-79
2021/01/31 04:44:55;;;;;;;48.92;16.20;;;;;;;;;;5051160;28;20041;-79
2021/01/31 04:47:24;;;;;;;46.35;15.48;;;;;;;;;;5052342;28;20064;-79
2021/01/31 04:50:01;;;;;;;47.55;15.65;;;;;;;;;;5042925;28;20577;-79
2021/01/31 04:52:28;;;;;;;51.88;16.52;;;;;;;;;;5051883;28;20122;-79
2021/01/31 04:54:59;;;;;;;42.78;16.92;;;;;;;;;;5033845;28;20080;-79
2021/01/31 04:57:46;;;;;;;54.78;17.95;;;;;;;;;;5051418;28;20118;-79
2021/01/31 05:00:17;;;;;;;44.20;15.63;;;;;;;;;;5028356;28;20132;-79
2021/01/31 05:02:47;;;;;;;47.15;15.48;;;;;;;;;;5032600;28;20070;-78
2021/01/31 05:05:18;;;;;;;48.65;16.00;;;;;;;;;;5034251;28;20037;-78
2021/01/31 05:07:53;;;;;;;40.38;16.25;;;;;;;;;;5050415;28;20048;-79
2021/01/31 05:10:20;;;;;;;48.78;15.98;;;;;;;;;;5052258;28;20067;-79
2021/01/31 05:12:59;;;;;;;49.45;16.75;;;;;;;;;;5051337;28;20103;-79
2021/01/31 05:15:31;;;;;;;47.67;16.13;;;;;;;;;;5033545;28;20111;-78
2021/01/31 05:18:00;;;;;;;49.67;16.42;;;;;;;;;;5044158;28;20052;-78
2021/01/31 05:20:28;;;;;;;48.03;17.20;;;;;;;;;;5058331;28;20048;-78
2021/01/31 05:22:57;;;;;;;45.40;16.92;;;;;;;;;;5033580;28;20041;-79
2021/01/31 05:25:31;;;;;;;46.88;17.52;;;;;;;;;;5033918;28;20103;-78
2021/01/31 05:28:00;;;;;;;49.13;17.75;;;;;;;;;;5028621;28;20124;-79
2021/01/31 05:30:28;;;;;;;44.83;17.50;;;;;;;;;;5033474;28;20049;-79
2021/01/31 05:33:04;;;;;;;52.80;17.85;;;;;;;;;;5032928;28;20604;-79
2021/01/31 05:35:31;;;;;;;45.53;17.02;;;;;;;;;;5030153;28;20128;-79
2021/01/31 05:37:59;;;;;;;49.75;16.85;;;;;;;;;;5031286;28;20128;-78
2021/01/31 05:40:27;;;;;;;51.78;16.90;;;;;;;;;;5033609;28;20142;-79
2021/01/31 05:42:54;;;;;;;48.78;17.75;;;;;;;;;;5032481;28;20049;-79
2021/01/31 05:45:21;;;;;;;53.78;18.23;;;;;;;;;;5033726;28;20558;-78
2021/01/31 05:47:49;;;;;;;50.63;17.98;;;;;;;;;;5030915;28;20069;-79
2021/01/31 05:50:36;;;;;;;48.00;18.98;;;;;;;;;;5033623;28;20462;-78
2021/01/31 05:53:21;;;;;;;48.38;17.52;;;;;;;;;;5033370;28;20132;-78
2021/01/31 05:55:47;;;;;;;51.17;17.90;;;;;;;;;;5050376;28;20443;-78
2021/01/31 05:58:14;;;;;;;49.60;16.73;;;;;;;;;;5032854;28;20045;-78
2021/01/31 06:00:44;;;;;;;49.60;16.33;;;;;;;;;;5049947;28;20076;-78
2021/01/31 06:03:11;;;;;;;49.25;16.75;;;;;;;;;;5052090;28;20049;-78
2021/01/31 06:05:39;;;;;;;37.70;14.93;;;;;;;;;;5037431;28;20069;-79
2021/01/31 06:08:10;;;;;;;49.15;17.02;;;;;;;;;;5051172;28;20065;-79
2021/01/31 06:10:39;;;;;;;44.33;17.33;;;;;;;;;;5032136;28;20128;-78
2021/01/31 06:13:21;;;;;;;44.75;15.80;;;;;;;;;;5036681;28;20056;-78
2021/01/31 06:15:58;;;;;;;40.80;16.20;;;;;;;;;;5054609;28;20071;-79
2021/01/31 06:18:40;;;;;;;49.10;15.75;;;;;;;;;;5036118;28;20049;-79
2021/01/31 06:21:34;;;;;;;36.28;14.00;;;;;;;;;;5030164;28;20102;-79
2021/01/31 06:24:00;;;;;;;44.88;17.05;;;;;;;;;;5025191;28;20080;-79
2021/01/31 06:26:28;;;;;;;43.90;15.13;;;;;;;;;;5050369;28;20092;-79
2021/01/31 06:29:01;;;;;;;40.90;15.00;;;;;;;;;;5054919;28;20053;-79
2021/01/31 06:31:50;;;;;;;50.67;14.77;;;;;;;;;;5036474;28;20045;-79
2021/01/31 06:34:17;;;;;;;42.15;14.73;;;;;;;;;;5035678;28;20049;-78
2021/01/31 06:36:50;;;;;;;42.40;15.25;;;;;;;;;;5054376;28;20107;-79
2021/01/31 06:39:37;;;;;;;47.83;15.88;;;;;;;;;;5036209;28;20109;-80
2021/01/31 06:42:19;;;;;;;43.47;14.88;;;;;;;;;;5046770;28;20048;-80
2021/01/31 06:44:57;;;;;;;40.55;14.25;;;;;;;;;;5037182;28;20068;-79
2021/01/31 06:50:43;;;;;;;39.42;13.90;;;;;;;;;;5042709;28;20081;-79
2021/01/31 06:53:51;;;;;;;34.60;12.35;;;;;;;;;;4983379;28;20055;-80
2021/01/31 06:56:39;;;;;;;37.55;12.43;;;;;;;;;;4957241;28;20092;-79
2021/01/31 06:59:24;;;;;;;31.98;12.93;;;;;;;;;;4965908;28;20121;-79
2021/01/31 07:01:51;;;;;;;;;;;;;;;;;;5016846;28;20041;-79
2021/01/31 07:04:28;;;;;;;31.27;11.85;;;;;;;;;;5053586;28;20011;-79
2021/01/31 07:07:10;;;;;;;36.83;12.43;;;;;;;;;;5036161;28;20637;-79
2021/01/31 07:10:02;;;;;;;39.60;12.93;;;;;;;;;;5053609;28;20049;-80
2021/01/31 07:12:54;;;;;;;35.03;12.93;;;;;;;;;;5036134;28;20041;-79
2021/01/31 07:15:21;;;;;;;38.15;11.93;;;;;;;;;;4997335;28;20095;-79
2021/01/31 07:17:53;;;;;;;34.00;13.57;;;;;;;;;;5035753;28;20041;-79
2021/01/31 07:20:24;;;;;;;29.90;12.25;;;;;;;;;;5052225;28;20069;-79
2021/01/31 07:22:57;;;;;;;33.67;12.82;;;;;;;;;;5034910;28;20080;-79
2021/01/31 07:25:25;;;;;;;35.45;12.30;;;;;;;;;;5052249;28;20083;-79
2021/01/31 07:27:58;;;;;;;30.60;12.77;;;;;;;;;;5028918;28;20045;-79
2021/01/31 07:30:28;;;;;;;35.25;12.10;;;;;;;;;;5035453;28;20049;-81
2021/01/31 07:33:21;;;;;;;33.03;12.40;;;;;;;;;;5034750;28;20099;-79
2021/01/31 07:35:59;;;;;;;34.83;11.95;;;;;;;;;;5051814;28;20049;-79
2021/01/31 07:38:28;;;;;;;38.40;12.82;;;;;;;;;;5053360;28;20091;-79
2021/01/31 07:40:56;;;;;;;32.78;12.25;;;;;;;;;;5035459;28;20455;-79
2021/01/31 07:43:24;;;;;;;31.35;12.10;;;;;;;;;;5035027;28;20460;-79
2021/01/31 07:45:56;;;;;;;33.38;10.95;;;;;;;;;;5035360;28;20155;-78
2021/01/31 07:48:48;;;;;;;34.03;11.75;;;;;;;;;;5035150;28;20045;-79
2021/01/31 07:51:22;;;;;;;37.00;12.90;;;;;;;;;;5032202;28;20124;-80
2021/01/31 07:53:48;;;;;;;38.47;12.70;;;;;;;;;;5052359;28;20183;-79
2021/01/31 07:56:29;;;;;;;34.15;11.25;;;;;;;;;;5034916;28;20049;-79
2021/01/31 07:58:59;;;;;;;29.73;11.65;;;;;;;;;;5035311;28;20081;-79
2021/01/31 08:01:42;;;;;;;27.92;11.02;;;;;;;;;;5052090;28;20076;-79
2021/01/31 08:04:18;;;;;;;35.13;11.52;;;;;;;;;;5032399;28;20053;-80
2021/01/31 08:07:01;;;;;;;36.40;11.85;;;;;;;;;;5026622;28;20665;-79
2021/01/31 08:09:30;;;;;;;32.15;10.82;;;;;;;;;;5034872;28;20073;-79
2021/01/31 08:11:59;;;;;;;30.13;10.63;;;;;;;;;;5034266;28;20116;-79
2021/01/31 08:14:45;;;;;;;33.40;10.50;;;;;;;;;;5044310;28;20124;-79
2021/01/31 08:17:31;;;;;;;33.85;10.90;;;;;;;;;;5028427;28;20072;-82
2021/01/31 08:20:21;;;;;;;33.25;10.45;;;;;;;;;;5048153;28;20041;-80
2021/01/31 08:22:59;;;;;;;26.05;10.40;;;;;;;;;;5043540;28;20625;-81
2021/01/31 08:25:28;;;;;;;25.75;10.00;;;;;;;;;;5033889;28;20072;-80
2021/01/31 08:28:02;;;;;;;27.23;9.82;;;;;;;;;;5052177;28;20055;-80
2021/01/31 08:30:30;;;;;;;32.38;10.45;;;;;;;;;;5051946;28;20114;-78
2021/01/31 08:33:06;;;;;;;32.40;10.27;;;;;;;;;;5052186;28;20052;-81
2021/01/31 08:35:36;;;;;;;24.98;9.25;;;;;;;;;;5034605;28;20520;-78
2021/01/31 08:38:21;;;;;;;20.13;8.23;;;;;;;;;;5044328;28;20087;-78
2021/01/31 08:41:03;;;;;;;30.27;9.40;;;;;;;;;;5051560;28;20508;-79
2021/01/31 08:43:36;;;;;;;23.25;8.20;;;;;;;;;;5052007;28;20048;-79
2021/01/31 08:46:14;;;;;;;22.15;8.45;;;;;;;;;;5046832;28;20049;-79
2021/01/31 08:49:01;;;;;;;27.52;8.60;;;;;;;;;;5050199;28;20447;-78
2021/01/31 08:51:31;;;;;;;23.52;8.77;;;;;;;;;;5050996;28;20069;-79
2021/01/31 08:54:09;;;;;;;24.13;8.82;;;;;;;;;;5042162;28;20437;-79
2021/01/31 08:56:37;;;;;;;24.77;8.90;;;;;;;;;;5050292;28;20048;-78
2021/01/31 08:59:05;;;;;;;23.48;8.68;;;;;;;;;;5026610;28;20044;-79
2021/01/31 09:01:44;;;;;;;27.08;9.50;;;;;;;;;;5051719;28;20053;-79
2021/01/31 09:04:17;;;;;;;24.45;8.43;;;;;;;;;;5033895;28;20095;-79
2021/01/31 09:06:46;;;;;;;25.23;9.43;;;;;;;;;;5023049;28;20501;-79
2021/01/31 09:09:23;;;;;;;22.73;8.45;;;;;;;;;;5040770;28;20833;-78
2021/01/31 09:11:53;;;;;;;21.95;8.00;;;;;;;;;;5050888;28;20077;-78
2021/01/31 09:14:23;;;;;;;21.45;8.02;;;;;;;;;;5052078;28;20098;-78
2021/01/31 09:16:50;;;;;;;25.85;9.25;;;;;;;;;;5052628;28;20053;-81
2021/01/31 09:19:24;;;;;;;20.50;8.25;;;;;;;;;;5052430;28;20477;-80
2021/01/31 09:21:54;;;;;;;21.75;8.80;;;;;;;;;;5051790;28;20567;-81
2021/01/31 09:24:22;;;;;;;24.65;7.93;;;;;;;;;;5042697;28;20068;-82
2021/01/31 09:26:50;;;;;;;22.58;8.10;;;;;;;;;;5052348;28;20091;-82
2021/01/31 09:29:17;;;;;;;28.45;9.20;;;;;;;;;;5036067;28;20102;-83
2021/01/31 09:32:25;;;;;;;21.63;8.77;;;;;;;;;;5052109;28;20041;-83
2021/01/31 09:34:55;;;;;;;26.02;9.80;;;;;;;;;;5052431;28;20060;-82
2021/01/31 09:37:27;;;;;;;28.80;9.85;;;;;;;;;;5052792;28;20041;-83
2021/01/31 09:40:05;;;;;;;23.20;8.60;;;;;;;;;;5030375;28;20076;-84
2021/01/31 09:42:34;;;;;;;23.75;8.85;;;;;;;;;;5046579;28;20107;-83
2021/01/31 09:45:05;;;;;;;23.95;8.95;;;;;;;;;;5046821;28;20053;-81
2021/01/31 09:47:32;;;;;;;21.95;8.65;;;;;;;;;;5056201;28;20071;-80
2021/01/31 09:50:01;;;;;;;21.42;8.73;;;;;;;;;;5054286;28;20127;-81
2021/01/31 09:52:30;;;;;;;22.75;9.55;;;;;;;;;;5048551;28;20122;-81
2021/01/31 09:54:57;;;;;;;21.30;9.02;;;;;;;;;;5042592;28;20077;-80
2021/01/31 09:57:26;;;;;;;21.13;9.43;;;;;;;;;;5032936;28;20049;-80
2021/01/31 10:00:04;;;;;;;20.95;8.57;;;;;;;;;;5055537;28;20080;-80
2021/01/31 10:02:31;;;;;;;23.58;8.93;;;;;;;;;;5055200;28;20049;-81
2021/01/31 10:05:06;;;;;;;26.25;9.90;;;;;;;;;;5054917;28;20466;-81
2021/01/31 10:07:38;;;;;;;26.35;9.43;;;;;;;;;;5052140;28;20045;-82
2021/01/31 10:10:24;;;;;;;27.08;10.13;;;;;;;;;;5049793;28;20049;-79
2021/01/31 10:12:50;;;;;;;;;;;;;;;;;;5054653;28;20044;-78
2021/01/31 10:15:36;;;;;;;26.52;10.25;;;;;;;;;;5052936;28;20322;-76
2021/01/31 10:18:03;;;;;;;25.30;9.68;;;;;;;;;;5045997;28;20045;-78
2021/01/31 10:20:34;;;;;;;23.67;9.77;;;;;;;;;;5051899;28;20135;-76
2021/01/31 10:23:10;;;;;;;23.27;9.93;;;;;;;;;;5056431;28;20045;-76
2021/01/31 10:25:41;;;;;;;28.77;11.32;;;;;;;;;;5048568;28;20549;-75
2021/01/31 10:28:10;;;;;;;23.85;9.63;;;;;;;;;;5042003;28;20049;-76
2021/01/31 10:30:36;;;;;;;179.43;21.10;;;;;;;;;;5049816;28;20063;-77
2021/01/31 10:33:04;;;;;;;29.15;10.70;;;;;;;;;;5048490;28;20127;-73
2021/01/31 10:35:32;;;;;;;87.82;16.80;;;;;;;;;;5050405;28;20077;-76
2021/01/31 10:38:21;;;;;;;123.75;19.23;;;;;;;;;;5051330;28;20049;-77
2021/01/31 10:40:48;;;;;;;25.75;10.85;;;;;;;;;;5052020;28;20049;-81
2021/01/31 10:43:18;;;;;;;28.50;11.68;;;;;;;;;;5053227;28;20037;-80
2021/01/31 10:45:45;;;;;;;26.85;10.48;;;;;;;;;;5059444;28;20045;-79
2021/01/31 10:48:13;;;;;;;27.17;10.48;;;;;;;;;;5052141;28;20118;-80
2021/01/31 10:50:40;;;;;;;22.02;10.23;;;;;;;;;;5050875;28;20044;-78
2021/01/31 10:53:06;;;;;;;24.17;11.02;;;;;;;;;;5054046;28;20652;-77
2021/01/31 10:55:33;;;;;;;23.48;10.13;;;;;;;;;;5053575;28;20045;-77
2021/01/31 10:58:01;;;;;;;21.92;9.90;;;;;;;;;;5034424;28;20048;-78
2021/01/31 11:00:27;;;;;;;24.75;10.23;;;;;;;;;;5051971;28;20045;-78
2021/01/31 11:02:54;;;;;;;27.05;10.95;;;;;;;;;;5029165;28;20563;-79
2021/01/31 11:05:22;;;;;;;26.20;10.57;;;;;;;;;;5050287;28;20117;-79
2021/01/31 11:07:49;;;;;;;23.35;10.07;;;;;;;;;;5052874;28;20083;-81
2021/01/31 11:10:18;;;;;;;22.38;9.27;;;;;;;;;;5034683;28;20077;-79
2021/01/31 11:12:46;;;;;;;23.65;10.52;;;;;;;;;;5053046;28;20548;-79
2021/01/31 11:15:14;;;;;;;23.58;10.20;;;;;;;;;;5050021;28;20049;-80
2021/01/31 11:17:41;;;;;;;23.40;10.52;;;;;;;;;;5039635;28;20041;-80
2021/01/31 11:20:09;;;;;;;22.58;9.93;;;;;;;;;;5051397;28;20037;-80
2021/01/31 11:22:44;;;;;;;20.85;9.50;;;;;;;;;;5051822;28;20045;-82
2021/01/31 11:25:13;;;;;;;23.83;9.88;;;;;;;;;;5029256;28;20146;-83
2021/01/31 11:27:39;;;;;;;18.65;9.20;;;;;;;;;;5051793;28;20095;-80
2021/01/31 11:30:06;;;;;;;22.17;10.00;;;;;;;;;;5051747;28;20547;-81
2021/01/31 11:32:39;;;;;;;25.25;10.35;;;;;;;;;;5052098;28;20083;-81
2021/01/31 11:35:06;;;;;;;26.45;9.55;;;;;;;;;;5052596;28;20083;-81
2021/01/31 11:37:33;;;;;;;24.83;10.27;;;;;;;;;;5051858;28;20565;-81
2021/01/31 11:40:00;;;;;;;22.10;9.48;;;;;;;;;;5052087;28;20136;-79
2021/01/31 11:42:26;;;;;;;20.17;9.82;;;;;;;;;;5051635;28;20073;-79
2021/01/31 11:44:53;;;;;;;19.38;9.13;;;;;;;;;;5051873;28;20049;-80
2021/01/31 11:47:19;;;;;;;21.00;10.45;;;;;;;;;;5051870;28;20061;-80
2021/01/31 11:49:46;;;;;;;21.80;9.30;;;;;;;;;;5026650;28;20076;-79
2021/01/31 11:52:13;;;;;;;20.83;9.30;;;;;;;;;;5051177;28;20073;-79
2021/01/31 11:54:39;;;;;;;23.33;9.35;;;;;;;;;;5052334;28;20049;-79
2021/01/31 11:57:06;;;;;;;21.95;9.48;;;;;;;;;;5051345;28;20065;-80
2021/01/31 11:59:45;;;;;;;21.00;8.45;;;;;;;;;;5051872;28;20478;-79
2021/01/31 12:02:18;;;;;;;20.40;9.50;;;;;;;;;;5052364;28;20133;-81
2021/01/31 12:04:45;;;;;;;19.67;9.40;;;;;;;;;;5051483;28;20049;-78
2021/01/31 12:07:12;;;;;;;21.45;9.75;;;;;;;;;;5046407;28;20140;-79
2021/01/31 12:09:39;;;;;;;23.90;9.07;;;;;;;;;;5030154;28;20041;-78
2021/01/31 12:12:07;;;;;;;21.90;10.00;;;;;;;;;;5051634;28;20076;-78
2021/01/31 12:14:34;;;;;;;21.77;9.60;;;;;;;;;;5051871;28;20079;-79
2021/01/31 12:17:01;;;;;;;20.98;10.52;;;;;;;;;;5048406;28;20124;-79
2021/01/31 12:19:28;;;;;;;23.90;10.65;;;;;;;;;;5050105;28;20044;-78
2021/01/31 12:21:54;;;;;;;19.88;8.48;;;;;;;;;;5050976;28;20076;-78
2021/01/31 12:24:21;;;;;;;20.25;9.45;;;;;;;;;;5050537;28;20128;-77
2021/01/31 12:26:50;;;;;;;23.80;9.68;;;;;;;;;;5048695;28;20068;-74
2021/01/31 12:29:19;;;;;;;20.30;9.07;;;;;;;;;;5044601;28;20048;-78
2021/01/31 12:31:46;;;;;;;17.65;8.98;;;;;;;;;;5045439;28;20041;-76
2021/01/31 12:34:13;;;;;;;19.98;9.02;;;;;;;;;;5050354;28;20083;-77
2021/01/31 12:36:46;;;;;;;19.92;8.75;;;;;;;;;;5049222;28;20171;-81
2021/01/31 12:39:12;;;;;;;19.02;8.68;;;;;;;;;;5053573;28;20095;-81
2021/01/31 12:41:40;;;;;;;18.92;9.07;;;;;;;;;;5051019;28;20046;-77
2021/01/31 12:44:06;;;;;;;25.80;10.57;;;;;;;;;;5049653;28;20178;-80
2021/01/31 12:46:33;;;;;;;37.28;13.18;;;;;;;;;;5050641;28;20084;-79
2021/01/31 12:48:59;;;;;;;36.85;13.05;;;;;;;;;;5043210;28;20442;-80
2021/01/31 12:51:27;;;;;;;75.80;24.38;;;;;;;;;;5050869;28;20045;-80
2021/01/31 12:53:54;;;;;;;32.97;12.13;;;;;;;;;;5051250;28;20063;-80
2021/01/31 12:56:20;;;;;;;23.50;10.57;;;;;;;;;;5051537;28;20079;-80
2021/01/31 12:58:47;;;;;;;27.50;12.63;;;;;;;;;;5051474;28;20067;-80
2021/01/31 13:01:14;;;;;;;34.78;14.13;;;;;;;;;;5051339;28;20136;-81
2021/01/31 13:03:44;;;;;;;31.50;13.50;;;;;;;;;;5033855;28;20067;-81
2021/01/31 13:06:10;;;;;;;28.77;12.70;;;;;;;;;;5047341;28;20084;-82
2021/01/31 13:08:37;;;;;;;20.73;10.75;;;;;;;;;;5048753;28;20040;-81
2021/01/31 13:11:04;;;;;;;26.48;12.15;;;;;;;;;;5052207;28;20053;-82
2021/01/31 13:13:31;;;;;;;21.33;8.85;;;;;;;;;;5037534;28;20486;-82
2021/01/31 13:15:57;;;;;;;17.55;8.75;;;;;;;;;;5055647;28;20533;-82
2021/01/31 13:18:24;;;;;;;21.17;10.23;;;;;;;;;;5055951;28;20053;-81
2021/01/31 13:20:51;;;;;;;22.08;10.82;;;;;;;;;;5037730;28;20494;-81
2021/01/31 13:23:19;;;;;;;18.17;9.30;;;;;;;;;;5047467;28;20076;-82
2021/01/31 13:25:45;;;;;;;18.27;9.57;;;;;;;;;;5055815;28;20041;-82
2021/01/31 13:28:12;;;;;;;19.92;9.43;;;;;;;;;;5055607;28;20128;-81
2021/01/31 13:30:41;;;;;;;17.67;8.93;;;;;;;;;;5053908;28;20049;-81
2021/01/31 13:33:08;;;;;;;21.67;9.63;;;;;;;;;;5054496;28;20658;-82
2021/01/31 13:35:35;;;;;;;23.00;10.20;;;;;;;;;;5055802;28;20098;-82
2021/01/31 13:38:02;;;;;;;23.73;10.55;;;;;;;;;;5040725;28;20127;-82
2021/01/31 13:40:53;;;;;;;23.17;9.90;;;;;;;;;;5055768;28;20049;-82
2021/01/31 13:43:20;;;;;;;19.77;9.45;;;;;;;;;;5045887;28;20411;-82
2021/01/31 13:45:47;;;;;;;18.40;8.60;;;;;;;;;;5048634;28;20045;-82
2021/01/31 13:48:17;;;;;;;20.27;9.57;;;;;;;;;;5049064;28;20105;-82
2021/01/31 13:50:43;;;;;;;16.98;8.70;;;;;;;;;;5052765;28;20041;-82
2021/01/31 13:53:10;;;;;;;20.45;9.43;;;;;;;;;;5053056;28;20045;-82
2021/01/31 13:55:37;;;;;;;19.27;8.73;;;;;;;;;;5054240;28;20087;-83
2021/01/31 13:58:09;;;;;;;19.65;8.98;;;;;;;;;;5045838;28;20045;-83
2021/01/31 14:00:36;;;;;;;22.60;9.13;;;;;;;;;;5052798;28;20068;-82
2021/01/31 14:03:04;;;;;;;16.75;7.95;;;;;;;;;;5054518;28;20049;-82
2021/01/31 14:05:30;;;;;;;19.65;8.60;;;;;;;;;;5053718;28;20482;-83
2021/01/31 14:07:58;;;;;;;18.20;7.88;;;;;;;;;;5055024;28;20090;-84
2021/01/31 14:10:26;;;;;;;19.77;8.60;;;;;;;;;;5055291;28;20049;-82
2021/01/31 14:12:54;;;;;;;21.15;8.85;;;;;;;;;;5054797;28;20080;-83
2021/01/31 14:15:20;;;;;;;18.05;8.43;;;;;;;;;;5054558;28;20128;-82
2021/01/31 14:17:47;;;;;;;22.00;8.38;;;;;;;;;;5038088;28;20873;-82
2021/01/31 14:20:18;;;;;;;20.33;8.07;;;;;;;;;;5030080;28;20072;-82
2021/01/31 14:22:48;;;;;;;20.17;7.78;;;;;;;;;;5052323;28;20120;-81
2021/01/31 14:25:15;;;;;;;20.13;8.45;;;;;;;;;;5053927;28;20127;-82
2021/01/31 14:27:42;;;;;;;16.02;7.00;;;;;;;;;;5053602;28;20076;-81
2021/01/31 14:30:10;;;;;;;16.83;7.00;;;;;;;;;;5045359;28;20041;-81
2021/01/31 14:32:41;;;;;;;17.08;7.60;;;;;;;;;;5054358;28;20095;-81
2021/01/31 14:35:08;;;;;;;16.50;7.22;;;;;;;;;;5054891;28;20077;-80
2021/01/31 14:37:37;;;;;;;22.25;8.73;;;;;;;;;;5054274;28;20041;-81
2021/01/31 14:40:05;;;;;;;19.88;8.20;;;;;;;;;;5026455;28;20430;-81
2021/01/31 14:42:32;;;;;;;23.38;8.38;;;;;;;;;;5050313;28;20045;-81
2021/01/31 14:45:08;;;;;;;19.13;8.30;;;;;;;;;;5053445;28;20076;-81
2021/01/31 14:47:35;;;;;;;21.63;8.63;;;;;;;;;;5039149;28;20084;-81
2021/01/31 14:50:02;;;;;;;18.20;7.75;;;;;;;;;;5036429;28;20619;-79